Energy Center, Louisiana
Current Conditions -  °F | °C
As of 12:53 PM on Tuesday 21 Oct 2014 (Local Time) from KLFT Reporting Station
Clear Clear  
Wind Chill: 79°   Ceiling: Unl
Heat Index: 79°   Visibility: 10mi
Dew Point: 53°   Wind: 10mph
Humidity: 40%   Direction: 30°NNE
Pressure: 30.05"   Gusts: NA
Location:  30.2247°N, 92.0198°W
Report Text: KLFT 211753Z 03009KT 10SM CLR 26/12 A3005 RMK AO2 SLP175 T02610117 10261 20122 58012
Loading
Personal Weather Stations






























Interactive Weather Map
Tropical Storm Tracking
New forecast layout! Learn more

10-Day Weather Forecast

Advertisements
Track Severe Weather on mobile